Pratica Di Mare, Italy

05:29 PM CEST del 01 Ottobre 2016 (GMT +0200)
Via di Ponente | | Change Station
Avvisi attivi: >>

Alt. 9 ft 41.63 °N, 12.47 °E | Updated 18 minutes ago

Partly Cloudy
Parzialmente nuvoloso
73.9 °F
Sembra 75 °F
N
4.3
Vento Variabile Vento da SSE
Gusts 8.7 mph

Oggi
Massima -- | Minima -- °F
--% Possibilità di precip.
Ieri
Massima -- | Minima -- °F
Precip. -- in
Pressione 30.01 in
Visibilità 6.2 miglia
Nuvole Alcuni 7000 ft
Indice di calore 75 °F
Punto di rugiada 65 °F
Umidità 73%
Piovosità 0.00 in
Spessore del manto nevoso Non disponibile.
7:07 AM 6:51 PM
Luna nuova, 0% visible
METAR LIRA 011520Z 16010KT 120V180 9999 FEW070 22/14 Q1016
Pressione 30.01 in
Visibilità 6.2 miglia
Nuvole Alcuni 7000 ft
Indice di calore 75 °F
Punto di rugiada 65 °F
Umidità 73%
Piovosità 0.00 in
Spessore del manto nevoso Non disponibile.
7:07 AM 6:51 PM
Luna nuova, 0% visible
METAR LIRA 011520Z 16010KT 120V180 9999 FEW070 22/14 Q1016

10-Day Weather Forecast

×

Almanac

Astronomia

Oct. 01, 2016 Alba Tramonto
Ora attuale
Crepuscolo civile
Crepuscolo nautico
Crepuscolo astronomico
Luna
Estensione della luce visibile
Lunghezza del giorno
Tomorrow will be .
, % of the Moon is Illuminated

Gli estremi di oggi

Massime Regione Minime Regione

Community

WunderPhotos

Upload Photos

1,942,955 foto caricate!

WunderBlog® & News

Nearby

Qualità dell'aria

  Qualità dell'aria Indice AQ Inquinante
Not available.

Profondità neve

Stazione Profondità Altitudine

Attività sismica

Città  Distanza Mag. Data & Ora
Minimo Magnitudo Mostrato è 2.5.

Temperature delle acque costiere

Località Temperatura

Stations

Stazioni meteo nelle vicinanze

Ubicazione della stazione Temp. Raffreddamento del vento Punto di rugiada Umidità Vento Precip. Alt. Aggiornato Tipo